Houlton, ME

9:08 PM EST on December 07, 2016 (GMT -0500)
Houlton International | | Change Station

Elev 492 ft 46.12 °N, 67.79 °W | Updated 15 minutes ago

Overcast
Overcast
27 °F
Feels Like 19 °F
N
8
Wind Variable Wind from SSW

Today
High -- | Low -- °F
--% Chance of Precip.
Yesterday
High -- | Low -- °F
Precip. -- in
Pressure 29.91 in
Visibility 10.0 miles
Clouds Overcast 700 ft
Windchill 19 °F
Dew Point 25 °F
Humidity 92%
Rainfall 0.00 in
Snow Depth Not available.
7:00 AM 3:45 PM
First Quarter, 58% visible
METAR KHUL 080153Z AUTO 20007KT 10SM OVC007 M03/M04 A2989 RMK AO2 SLP129 T10281039
Pressure 29.91 in
Visibility 10.0 miles
Clouds Overcast 700 ft
Windchill 19 °F
Dew Point 25 °F
Humidity 92%
Rainfall 0.00 in
Snow Depth Not available.
7:00 AM 3:45 PM
First Quarter, 58% visible
METAR KHUL 080153Z AUTO 20007KT 10SM OVC007 M03/M04 A2989 RMK AO2 SLP129 T10281039

10-Day Weather Forecast

Almanac

Astronomy

Dec. 07, 2016 Rise Set
Actual Time
Civil Twilight
Nautical Twilight
Astronomical Twilight
Moon
Length of Visible Light
Length of Day
Tomorrow will be .
, % of the Moon is Illuminated

Today's Extremes

State Highs State Lows

Community

WunderPhotos

Upload Photos

1,956,259 photos uploaded!

WunderBlog® & News

Nearby

Air Quality

  Air Quality AQ Index Pollutant
Not available.

Snow Depth

Station Depth Elevation

Earthquake Activity

City Distance Mag. Time & Date
Minimum magnitude displayed is 2.5.

Coastal Water Temperatures

Place Temperature

Stations

Nearby Weather Stations

Station Location Temp. Windchill Dew Point Humidity Wind Precip. Elev Updated Type
                   

Watches & Warnings

There are currently no watches in effect.